Time;durP1;ratioP1;P1;durP2;ratioP2;P2;SDS_P1;SDS_P2;PMS_P1;PMS_P2;Temp;Humidity;BMP_temperature;BMP_pressure;BME280_temperature;BME280_humidity;BME280_pressure;Samples;Min_cycle;Max_cycle;Signal;HPM_P1;HPM_P2
2023/09/25 00:00:49;;;;;;;;;;;12.90;99.90;;;;;;4975166;28;19926;-31
2023/09/25 00:03:15;;;;;;;;;;;12.90;99.90;;;;;;4974509;28;20206;-32
2023/09/25 00:05:42;;;;;;;;;;;12.90;99.90;;;;;;4975516;28;20445;-32
2023/09/25 00:08:10;;;;;;;;;;;12.90;99.90;;;;;;4957238;28;19930;-31
2023/09/25 00:10:37;;;;;;;;;;;12.90;99.90;;;;;;4974255;28;19977;-32
2023/09/25 00:13:04;;;;;;;;;;;13.00;99.90;;;;;;4974705;28;19977;-31
2023/09/25 00:15:30;;;;;;;;;;;13.00;99.90;;;;;;4958066;28;20544;-32
2023/09/25 00:17:57;;;;;;;;;;;13.00;99.90;;;;;;4974484;28;19933;-31
2023/09/25 00:20:24;;;;;;;;;;;13.00;99.90;;;;;;4974137;28;20405;-32
2023/09/25 00:22:51;;;;;;;;;;;13.00;99.90;;;;;;4973096;28;20389;-33
2023/09/25 00:25:20;;;;;;;;;;;13.00;99.90;;;;;;4974394;28;20306;-32
2023/09/25 00:27:46;;;;;;;;;;;13.00;99.90;;;;;;4972243;28;19926;-31
2023/09/25 00:30:14;;;;;;;;;;;13.00;99.90;;;;;;4973872;28;19937;-34
2023/09/25 00:32:41;;;;;;;;;;;12.90;99.90;;;;;;4974724;28;20358;-32
2023/09/25 00:35:10;;;;;;;;;;;12.90;99.90;;;;;;4974755;28;19933;-32
2023/09/25 00:37:36;;;;;;;;;;;12.90;99.90;;;;;;4955992;28;19949;-33
2023/09/25 00:40:13;;;;;;;;;;;12.90;99.90;;;;;;4955136;28;19973;-31
2023/09/25 00:42:41;;;;;;;;;;;12.90;99.90;;;;;;4973118;28;20028;-31
2023/09/25 00:45:08;;;;;;;;;;;12.90;99.90;;;;;;4953633;29;20386;-31
2023/09/25 00:47:35;;;;;;;;;;;12.80;99.90;;;;;;4963923;28;19926;-31
2023/09/25 00:50:03;;;;;;;;;;;12.80;99.90;;;;;;4972892;28;19933;-32
2023/09/25 00:52:30;;;;;;;;;;;12.80;99.90;;;;;;4956463;28;20290;-31
2023/09/25 00:54:57;;;;;;;;;;;12.80;99.90;;;;;;4973314;28;20277;-31
2023/09/25 00:57:23;;;;;;;;;;;12.80;99.90;;;;;;4972578;28;20437;-33
2023/09/25 00:59:51;;;;;;;;;;;12.80;99.90;;;;;;4957536;28;19949;-32
2023/09/25 01:02:18;;;;;;;;;;;12.80;99.90;;;;;;4973232;28;19934;-33
2023/09/25 01:04:45;;;;;;;;;;;12.80;99.90;;;;;;4954490;28;19965;-32
2023/09/25 01:07:11;;;;;;;;;;;12.70;99.90;;;;;;4974111;28;19930;-32
2023/09/25 01:09:38;;;;;;;;;;;12.80;99.90;;;;;;4956826;28;19980;-32
2023/09/25 01:12:06;;;;;;;;;;;12.80;99.90;;;;;;4973428;28;19930;-32
2023/09/25 01:14:32;;;;;;;;;;;12.80;99.90;;;;;;4974227;28;19926;-31
2023/09/25 01:17:01;;;;;;;;;;;12.70;99.90;;;;;;4972793;28;19980;-31
2023/09/25 01:19:28;;;;;;;;;;;12.80;99.90;;;;;;4972511;28;19926;-31
2023/09/25 01:21:56;;;;;;;;;;;12.70;99.90;;;;;;4972237;28;19974;-32
2023/09/25 01:24:23;;;;;;;;;;;12.70;99.90;;;;;;4974007;28;19934;-31
2023/09/25 01:26:50;;;;;;;;;;;12.70;99.90;;;;;;4957146;28;19980;-32
2023/09/25 01:29:17;;;;;;;;;;;12.70;99.90;;;;;;4972891;28;19973;-34
2023/09/25 01:31:44;;;;;;;;;;;12.80;99.90;;;;;;4972187;28;19933;-32
2023/09/25 01:34:11;;;;;;;;;;;12.70;99.90;;;;;;4972681;28;19933;-32
2023/09/25 01:36:37;;;;;;;;;;;12.70;99.90;;;;;;4973757;28;19981;-32
2023/09/25 01:39:08;;;;;;;;;;;12.70;99.90;;;;;;4972574;28;20299;-31
2023/09/25 01:41:35;;;;;;;;;;;12.80;99.90;;;;;;4973009;28;19972;-31
2023/09/25 01:44:02;;;;;;;;;;;12.80;99.90;;;;;;4956545;28;19927;-32
2023/09/25 01:46:29;;;;;;;;;;;12.70;99.90;;;;;;4972077;28;19930;-31
2023/09/25 01:48:55;;;;;;;;;;;12.70;99.90;;;;;;4972724;28;19977;-32
2023/09/25 01:51:22;;;;;;;;;;;12.70;99.90;;;;;;4973436;28;20308;-32
2023/09/25 01:53:50;;;;;;;;;;;12.70;99.90;;;;;;4973394;28;20354;-32
2023/09/25 01:56:18;;;;;;;;;;;12.70;99.90;;;;;;4972454;28;19927;-33
2023/09/25 01:58:45;;;;;;;;;;;12.70;99.90;;;;;;4953999;28;19926;-32
2023/09/25 02:01:11;;;;;;;;;;;12.70;99.90;;;;;;4963739;28;20330;-32
2023/09/25 02:03:38;;;;;;;;;;;12.70;99.90;;;;;;4972411;28;19989;-32
2023/09/25 02:06:05;;;;;;;;;;;12.60;99.90;;;;;;4971453;28;19977;-32
2023/09/25 02:08:32;;;;;;;;;;;12.60;99.90;;;;;;4972113;28;19930;-32
2023/09/25 02:10:58;;;;;;;;;;;12.60;99.90;;;;;;4971138;28;19973;-32
2023/09/25 02:13:26;;;;;;;;;;;12.60;99.90;;;;;;4971275;28;20425;-33
2023/09/25 02:15:54;;;;;;;;;;;12.60;99.90;;;;;;4955189;28;19926;-32
2023/09/25 02:18:21;;;;;;;;;;;12.60;99.90;;;;;;4971973;28;19933;-32
2023/09/25 02:20:47;;;;;;;;;;;12.60;99.90;;;;;;4971445;28;20374;-34
2023/09/25 02:23:14;;;;;;;;;;;12.60;99.90;;;;;;4972979;28;19969;-32
2023/09/25 02:25:41;;;;;;;;;;;12.60;99.90;;;;;;4971989;28;20354;-32
2023/09/25 02:28:07;;;;;;;;;;;12.60;99.90;;;;;;4973090;28;19930;-31
2023/09/25 02:30:36;;;;;;;;;;;12.70;99.90;;;;;;4970288;28;19989;-32
2023/09/25 02:33:02;;;;;;;;;;;12.60;99.90;;;;;;4971990;28;19926;-31
2023/09/25 02:35:29;;;;;;;;;;;12.60;99.90;;;;;;4972771;28;19934;-33
2023/09/25 02:37:56;;;;;;;;;;;12.60;99.90;;;;;;4969604;28;19926;-32
2023/09/25 02:40:22;;;;;;;;;;;12.60;99.90;;;;;;4972868;28;19930;-31
2023/09/25 02:42:49;;;;;;;;;;;12.60;99.90;;;;;;4971812;28;19927;-33
2023/09/25 02:45:16;;;;;;;;;;;12.70;99.90;;;;;;4970999;28;19926;-32
2023/09/25 02:47:44;;;;;;;;;;;12.60;99.90;;;;;;4953640;28;19977;-32
2023/09/25 02:50:11;;;;;;;;;;;12.70;99.90;;;;;;4972504;28;19973;-34
2023/09/25 02:52:37;;;;;;;;;;;12.60;99.90;;;;;;4976323;28;19930;-31
2023/09/25 02:55:04;;;;;;;;;;;12.60;99.90;;;;;;4974967;28;19989;-32
2023/09/25 02:57:31;;;;;;;;;;;12.60;99.90;;;;;;4975586;28;19926;-32
2023/09/25 02:59:58;;;;;;;;;;;12.60;99.90;;;;;;4974156;28;19962;-32
2023/09/25 03:02:25;;;;;;;;;;;12.60;99.90;;;;;;4975221;28;20417;-32
2023/09/25 03:04:54;;;;;;;;;;;12.50;99.90;;;;;;4973609;28;19933;-32
2023/09/25 03:07:20;;;;;;;;;;;12.50;99.90;;;;;;4973720;28;20017;-32
2023/09/25 03:09:47;;;;;;;;;;;12.50;99.90;;;;;;4974432;28;20038;-32
2023/09/25 03:12:14;;;;;;;;;;;12.50;99.90;;;;;;4975127;28;19989;-32
2023/09/25 03:14:40;;;;;;;;;;;12.50;99.90;;;;;;4975630;28;19933;-34
2023/09/25 03:17:07;;;;;;;;;;;12.40;99.90;;;;;;4956670;28;20281;-31
2023/09/25 03:19:35;;;;;;;;;;;12.40;99.90;;;;;;4974602;28;19989;-32
2023/09/25 03:22:03;;;;;;;;;;;12.40;99.90;;;;;;4974721;28;20033;-32
2023/09/25 03:24:30;;;;;;;;;;;12.40;99.90;;;;;;4956045;28;19926;-34
2023/09/25 03:26:57;;;;;;;;;;;12.40;99.90;;;;;;4955863;28;19938;-31
2023/09/25 03:29:23;;;;;;;;;;;12.40;99.90;;;;;;4974770;28;19926;-31
2023/09/25 03:31:51;;;;;;;;;;;12.40;99.90;;;;;;4973126;28;19930;-31
2023/09/25 03:34:17;;;;;;;;;;;12.30;99.90;;;;;;4972286;28;20357;-31
2023/09/25 03:36:44;;;;;;;;;;;12.30;99.90;;;;;;4972857;28;19954;-31
2023/09/25 03:39:12;;;;;;;;;;;12.30;99.90;;;;;;4975858;28;20310;-31
2023/09/25 03:41:38;;;;;;;;;;;12.30;99.90;;;;;;4958527;28;19973;-31
2023/09/25 03:44:05;;;;;;;;;;;12.30;99.90;;;;;;4974481;28;20304;-31
2023/09/25 03:46:32;;;;;;;;;;;12.30;99.90;;;;;;4957522;28;19996;-31
2023/09/25 03:49:05;;;;;;;;;;;12.30;99.90;;;;;;4975597;28;20029;-31
2023/09/25 03:51:32;;;;;;;;;;;12.30;99.90;;;;;;4973830;28;20025;-31
2023/09/25 03:53:59;;;;;;;;;;;12.30;99.90;;;;;;4948101;28;19981;-31
2023/09/25 03:56:27;;;;;;;;;;;12.30;99.90;;;;;;4936797;29;19935;-32
2023/09/25 03:58:53;;;;;;;;;;;12.30;99.90;;;;;;4945174;28;19930;-32
2023/09/25 04:01:20;;;;;;;;;;;12.30;99.90;;;;;;4973538;28;19973;-30
2023/09/25 04:03:47;;;;;;;;;;;12.20;99.90;;;;;;4973270;28;19930;-32
2023/09/25 04:06:13;;;;;;;;;;;12.30;99.90;;;;;;4973612;28;20021;-33
2023/09/25 04:08:40;;;;;;;;;;;12.30;99.90;;;;;;4973326;28;19999;-32
2023/09/25 04:11:09;;;;;;;;;;;12.30;99.90;;;;;;4973646;28;19934;-32
2023/09/25 04:13:37;;;;;;;;;;;12.30;99.90;;;;;;4970730;28;20298;-32
2023/09/25 04:16:06;;;;;;;;;;;12.30;99.90;;;;;;4945716;28;20207;-32
2023/09/25 04:18:32;;;;;;;;;;;12.30;99.90;;;;;;4971491;28;19933;-32
2023/09/25 04:21:02;;;;;;;;;;;12.30;99.90;;;;;;4972574;28;19980;-32
2023/09/25 04:23:28;;;;;;;;;;;12.30;99.90;;;;;;4969801;28;19965;-32
2023/09/25 04:26:00;;;;;;;;;;;12.30;99.90;;;;;;4970914;28;19941;-32
2023/09/25 04:28:28;;;;;;;;;;;12.30;99.90;;;;;;4957878;28;19933;-31
2023/09/25 04:30:57;;;;;;;;;;;12.30;99.90;;;;;;4974411;28;19926;-32
2023/09/25 04:33:24;;;;;;;;;;;12.30;99.90;;;;;;4973810;28;19926;-33
2023/09/25 04:35:52;;;;;;;;;;;12.30;99.90;;;;;;4971935;28;19934;-32
2023/09/25 04:38:18;;;;;;;;;;;12.30;99.90;;;;;;4973493;28;20013;-31
2023/09/25 04:40:46;;;;;;;;;;;12.30;99.90;;;;;;4971851;28;20378;-32
2023/09/25 04:43:13;;;;;;;;;;;12.30;99.90;;;;;;4953831;28;19937;-31
2023/09/25 04:45:39;;;;;;;;;;;12.20;99.90;;;;;;4971214;28;19934;-31
2023/09/25 04:48:09;;;;;;;;;;;12.20;99.90;;;;;;4952186;29;19930;-30
2023/09/25 04:50:37;;;;;;;;;;;12.20;99.90;;;;;;4945987;29;19934;-31
2023/09/25 04:53:05;;;;;;;;;;;12.20;99.90;;;;;;4953447;29;19933;-31
2023/09/25 04:55:32;;;;;;;;;;;12.30;99.90;;;;;;4949093;28;20375;-31
2023/09/25 04:57:59;;;;;;;;;;;12.30;99.90;;;;;;4950740;29;20379;-32
2023/09/25 05:00:26;;;;;;;;;;;12.20;99.90;;;;;;4946764;29;20379;-33
2023/09/25 05:02:53;;;;;;;;;;;12.30;99.90;;;;;;4958846;28;19973;-31
2023/09/25 05:05:22;;;;;;;;;;;12.30;99.90;;;;;;4950226;29;19926;-32
2023/09/25 05:07:49;;;;;;;;;;;12.20;99.90;;;;;;4953424;29;19926;-34
2023/09/25 05:10:16;;;;;;;;;;;12.20;99.90;;;;;;4949183;28;19942;-31
2023/09/25 05:12:43;;;;;;;;;;;12.20;99.90;;;;;;4956649;28;20386;-32
2023/09/25 05:15:10;;;;;;;;;;;12.30;99.90;;;;;;4948345;28;22195;-32
2023/09/25 05:17:37;;;;;;;;;;;12.30;99.90;;;;;;4953118;28;19935;-32
2023/09/25 05:20:08;;;;;;;;;;;12.30;99.90;;;;;;4953335;28;19927;-31
2023/09/25 05:22:37;;;;;;;;;;;12.30;99.90;;;;;;4953808;28;19927;-32
2023/09/25 05:25:04;;;;;;;;;;;12.30;99.90;;;;;;4952841;28;19926;-32
2023/09/25 05:27:30;;;;;;;;;;;12.30;99.90;;;;;;4966471;28;20544;-31
2023/09/25 05:29:57;;;;;;;;;;;12.30;99.90;;;;;;4949649;28;19978;-31
2023/09/25 05:32:24;;;;;;;;;;;12.30;99.90;;;;;;4962591;28;19970;-32
2023/09/25 05:34:50;;;;;;;;;;;12.30;99.90;;;;;;4950889;29;19941;-31
2023/09/25 05:37:17;;;;;;;;;;;12.30;99.90;;;;;;4969208;23;19976;-32
2023/09/25 05:39:45;;;;;;;;;;;12.30;99.90;;;;;;4997675;28;20678;-31
2023/09/25 05:42:12;;;;;;;;;;;12.30;99.90;;;;;;5007262;28;20451;-30
2023/09/25 05:44:39;;;;;;;;;;;12.30;99.90;;;;;;5009359;28;19929;-32
2023/09/25 05:47:05;;;;;;;;;;;12.30;99.90;;;;;;5029839;28;19929;-31
2023/09/25 05:49:32;;;;;;;;;;;12.40;99.90;;;;;;5028473;28;19933;-32
2023/09/25 05:51:59;;;;;;;;;;;12.30;99.90;;;;;;5010297;28;19929;-31
2023/09/25 05:54:25;;;;;;;;;;;12.30;99.90;;;;;;5009869;28;19925;-32
2023/09/25 05:56:53;;;;;;;;;;;12.40;99.90;;;;;;5006815;28;19957;-31
2023/09/25 05:59:20;;;;;;;;;;;12.40;99.90;;;;;;5022966;28;20382;-31
2023/09/25 06:01:47;;;;;;;;;;;12.40;99.90;;;;;;5003241;28;19971;-32
2023/09/25 06:04:15;;;;;;;;;;;12.40;99.90;;;;;;5010278;28;19925;-32
2023/09/25 06:06:42;;;;;;;;;;;12.40;99.90;;;;;;5009857;28;19925;-31
2023/09/25 06:09:15;;;;;;;;;;;12.40;99.90;;;;;;5010842;28;19937;-32
2023/09/25 06:11:42;;;;;;;;;;;12.40;99.90;;;;;;5030713;28;20287;-32
2023/09/25 06:14:10;;;;;;;;;;;12.50;99.90;;;;;;5028946;28;19971;-32
2023/09/25 06:16:37;;;;;;;;;;;12.50;99.90;;;;;;5029186;28;19925;-32
2023/09/25 06:19:03;;;;;;;;;;;12.50;99.90;;;;;;5011589;28;20389;-33
2023/09/25 06:21:30;;;;;;;;;;;12.50;99.90;;;;;;5012896;28;19925;-33
2023/09/25 06:23:57;;;;;;;;;;;12.50;99.90;;;;;;5028387;28;19954;-32
2023/09/25 06:26:27;;;;;;;;;;;12.50;99.90;;;;;;5033984;28;20016;-32
2023/09/25 06:28:53;;;;;;;;;;;12.60;99.90;;;;;;5020947;28;20013;-34
2023/09/25 06:31:22;;;;;;;;;;;12.60;99.90;;;;;;4997303;28;19976;-32
2023/09/25 06:33:49;;;;;;;;;;;12.60;99.90;;;;;;5016349;28;20345;-32
2023/09/25 06:36:16;;;;;;;;;;;12.70;99.90;;;;;;5033472;28;20456;-31
2023/09/25 06:38:42;;;;;;;;;;;12.70;99.90;;;;;;5034143;28;19929;-32
2023/09/25 06:41:10;;;;;;;;;;;12.70;99.90;;;;;;5016825;28;19929;-32
2023/09/25 06:43:37;;;;;;;;;;;12.80;99.90;;;;;;5015418;28;20451;-32
2023/09/25 06:46:04;;;;;;;;;;;12.80;99.90;;;;;;5033812;28;19925;-32
2023/09/25 06:48:33;;;;;;;;;;;12.90;99.90;;;;;;5015985;28;19941;-32
2023/09/25 06:50:59;;;;;;;;;;;12.90;99.90;;;;;;5016549;28;19940;-33
2023/09/25 06:53:26;;;;;;;;;;;13.00;99.90;;;;;;5016313;28;19968;-33
2023/09/25 06:55:53;;;;;;;;;;;13.00;99.90;;;;;;5014553;28;20358;-32
2023/09/25 06:58:19;;;;;;;;;;;13.00;99.90;;;;;;5015704;28;20381;-33
2023/09/25 07:00:46;;;;;;;;;;;13.10;99.90;;;;;;4997290;28;19925;-32
2023/09/25 07:03:13;;;;;;;;;;;13.20;99.90;;;;;;4996690;28;20290;-31
2023/09/25 07:05:41;;;;;;;;;;;13.20;99.90;;;;;;5027491;28;19925;-31
2023/09/25 07:08:08;;;;;;;;;;;13.30;99.90;;;;;;5033697;28;19992;-31
2023/09/25 07:10:34;;;;;;;;;;;13.30;99.90;;;;;;5012999;28;20388;-32
2023/09/25 07:13:01;;;;;;;;;;;13.40;99.90;;;;;;5002187;28;19980;-32
2023/09/25 07:15:28;;;;;;;;;;;13.50;99.90;;;;;;5012553;28;19929;-31
2023/09/25 07:17:54;;;;;;;;;;;13.50;99.90;;;;;;5013997;28;19926;-33
2023/09/25 07:20:21;;;;;;;;;;;13.60;99.90;;;;;;5019421;28;19984;-31
2023/09/25 07:22:49;;;;;;;;;;;13.60;99.90;;;;;;5015167;28;19925;-33
2023/09/25 07:25:16;;;;;;;;;;;13.70;99.90;;;;;;5007539;28;20284;-32
2023/09/25 07:27:42;;;;;;;;;;;13.70;99.90;;;;;;5031126;28;19932;-31
2023/09/25 07:30:10;;;;;;;;;;;13.80;99.90;;;;;;5032651;28;19925;-32
2023/09/25 07:32:39;;;;;;;;;;;13.80;99.90;;;;;;5032190;28;19932;-31
2023/09/25 07:35:09;;;;;;;;;;;13.90;99.90;;;;;;5032023;28;19926;-31
2023/09/25 07:37:36;;;;;;;;;;;13.90;99.90;;;;;;5014404;28;19935;-31
2023/09/25 07:40:08;;;;;;;;;;;14.00;99.90;;;;;;4999548;28;19925;-33
2023/09/25 07:42:35;;;;;;;;;;;14.00;99.90;;;;;;5030339;28;19925;-31
2023/09/25 07:45:05;;;;;;;;;;;14.10;99.90;;;;;;5032377;28;19929;-34
2023/09/25 07:47:32;;;;;;;;;;;14.10;99.90;;;;;;5015228;28;20562;-31
2023/09/25 07:49:58;;;;;;;;;;;14.20;99.90;;;;;;5031390;28;19925;-33
2023/09/25 07:52:25;;;;;;;;;;;14.30;99.90;;;;;;5031092;28;19979;-32
2023/09/25 07:54:52;;;;;;;;;;;14.30;99.90;;;;;;5032919;28;19996;-31
2023/09/25 07:57:20;;;;;;;;;;;14.40;99.90;;;;;;5032833;28;19925;-32
2023/09/25 07:59:47;;;;;;;;;;;14.50;99.90;;;;;;5021898;28;19973;-31
2023/09/25 08:02:16;;;;;;;;;;;14.60;99.90;;;;;;5023462;28;19992;-32
2023/09/25 08:04:43;;;;;;;;;;;14.70;99.90;;;;;;5014741;28;19939;-32
2023/09/25 08:07:10;;;;;;;;;;;14.80;99.90;;;;;;5015133;28;19932;-31
2023/09/25 08:09:37;;;;;;;;;;;14.90;99.90;;;;;;5032377;28;19933;-32
2023/09/25 08:12:03;;;;;;;;;;;15.00;99.90;;;;;;5014327;28;19925;-32
2023/09/25 08:14:32;;;;;;;;;;;15.00;99.90;;;;;;5014886;28;19925;-31
2023/09/25 08:16:59;;;;;;;;;;;15.10;99.90;;;;;;5014973;28;20373;-31
2023/09/25 08:19:26;;;;;;;;;;;15.10;99.90;;;;;;5032185;28;20352;-32
2023/09/25 08:21:53;;;;;;;;;;;15.20;99.90;;;;;;5031037;28;19948;-33
2023/09/25 08:24:20;;;;;;;;;;;15.20;99.90;;;;;;5032201;28;20392;-33
2023/09/25 08:26:47;;;;;;;;;;;15.30;99.90;;;;;;5032373;28;19925;-32
2023/09/25 08:29:14;;;;;;;;;;;15.30;99.90;;;;;;5014570;28;20304;-30
2023/09/25 08:31:43;;;;;;;;;;;15.40;99.90;;;;;;5013708;28;20377;-30
2023/09/25 08:34:10;;;;;;;;;;;15.40;99.90;;;;;;5031915;28;19948;-31
2023/09/25 08:36:36;;;;;;;;;;;15.50;99.90;;;;;;5013992;28;20011;-31
2023/09/25 08:39:03;;;;;;;;;;;15.50;99.90;;;;;;5031865;28;19929;-32
2023/09/25 08:41:30;;;;;;;;;;;15.60;99.90;;;;;;5012621;28;19929;-32
2023/09/25 08:43:57;;;;;;;;;;;15.70;99.90;;;;;;5031280;28;19925;-32
2023/09/25 08:46:24;;;;;;;;;;;15.80;99.90;;;;;;5031609;28;20040;-33
2023/09/25 08:48:56;;;;;;;;;;;16.00;99.90;;;;;;5030805;28;19988;-31
2023/09/25 08:51:23;;;;;;;;;;;16.20;99.90;;;;;;5031340;28;19932;-31
2023/09/25 08:53:50;;;;;;;;;;;16.40;99.90;;;;;;5014078;28;19925;-32
2023/09/25 08:56:17;;;;;;;;;;;16.60;99.90;;;;;;5014337;28;19925;-32
2023/09/25 08:58:43;;;;;;;;;;;16.80;99.90;;;;;;5011895;28;19925;-31
2023/09/25 09:01:10;;;;;;;;;;;16.90;99.90;;;;;;4994278;28;19980;-34
2023/09/25 09:03:37;;;;;;;;;;;17.00;99.90;;;;;;5030569;28;19932;-32
2023/09/25 09:06:05;;;;;;;;;;;17.10;99.90;;;;;;5013753;28;20016;-32
2023/09/25 09:08:32;;;;;;;;;;;17.20;99.90;;;;;;5031570;28;19929;-31
2023/09/25 09:10:59;;;;;;;;;;;17.30;99.90;;;;;;5013512;28;20011;-32
2023/09/25 09:13:25;;;;;;;;;;;17.30;99.90;;;;;;5012923;28;19925;-31
2023/09/25 09:15:52;;;;;;;;;;;17.30;99.90;;;;;;5030863;28;20348;-33
2023/09/25 09:18:20;;;;;;;;;;;17.30;99.90;;;;;;5031035;28;20349;-34
2023/09/25 09:20:47;;;;;;;;;;;17.30;99.90;;;;;;5013401;28;19928;-32
2023/09/25 09:23:15;;;;;;;;;;;17.40;99.90;;;;;;5029515;28;19932;-32
2023/09/25 09:25:44;;;;;;;;;;;17.40;99.90;;;;;;5010927;28;19983;-32
2023/09/25 09:28:11;;;;;;;;;;;17.50;99.90;;;;;;5031036;28;20019;-31
2023/09/25 09:30:37;;;;;;;;;;;17.50;99.90;;;;;;5031237;28;20290;-32
2023/09/25 09:33:07;;;;;;;;;;;17.60;99.90;;;;;;5013048;28;20423;-33
2023/09/25 09:35:33;;;;;;;;;;;17.70;99.90;;;;;;5011701;28;19948;-31
2023/09/25 09:38:02;;;;;;;;;;;17.70;99.90;;;;;;5030718;28;19933;-31
2023/09/25 09:40:30;;;;;;;;;;;17.70;99.90;;;;;;5028771;28;19987;-32
2023/09/25 09:42:57;;;;;;;;;;;17.70;99.90;;;;;;5012756;28;19976;-33
2023/09/25 09:45:24;;;;;;;;;;;17.80;99.90;;;;;;5015384;28;19925;-32
2023/09/25 09:47:51;;;;;;;;;;;17.90;99.90;;;;;;4993369;28;19972;-32
2023/09/25 09:50:18;;;;;;;;;;;18.00;99.90;;;;;;4993485;28;20370;-32
2023/09/25 09:52:45;;;;;;;;;;;18.10;99.90;;;;;;4993318;28;19973;-31
2023/09/25 09:55:12;;;;;;;;;;;18.20;99.90;;;;;;5005879;28;20072;-35
2023/09/25 09:57:40;;;;;;;;;;;18.40;99.90;;;;;;5011198;28;19957;-32
2023/09/25 10:00:07;;;;;;;;;;;18.50;99.90;;;;;;5012699;28;19925;-32
2023/09/25 10:02:34;;;;;;;;;;;18.50;99.90;;;;;;5013024;28;19932;-32
2023/09/25 10:05:01;;;;;;;;;;;18.50;99.90;;;;;;5013073;28;19925;-32
2023/09/25 10:07:27;;;;;;;;;;;18.60;99.90;;;;;;5029259;28;19933;-32
2023/09/25 10:09:56;;;;;;;;;;;18.60;99.90;;;;;;5030297;28;20304;-32
2023/09/25 10:12:40;;;;;;;;;;;18.70;99.90;;;;;;5030561;28;19925;-33
2023/09/25 10:15:08;;;;;;;;;;;18.80;99.90;;;;;;5030285;28;19925;-31
2023/09/25 10:17:38;;;;;;;;;;;18.90;99.90;;;;;;5028681;28;19929;-32
2023/09/25 10:20:05;;;;;;;;;;;19.00;99.90;;;;;;5030492;28;19980;-34
2023/09/25 10:22:32;;;;;;;;;;;19.00;99.90;;;;;;5012676;28;19926;-32
2023/09/25 10:24:59;;;;;;;;;;;19.10;99.90;;;;;;5030610;28;19925;-31
2023/09/25 10:27:28;;;;;;;;;;;19.20;99.90;;;;;;5029837;28;19972;-34
2023/09/25 10:30:11;;;;;;;;;;;19.30;99.90;;;;;;5012788;28;20020;-32
2023/09/25 10:32:38;;;;;;;;;;;19.40;99.90;;;;;;5030836;28;19932;-32
2023/09/25 10:35:23;;;;;;;;;;;19.50;99.90;;;;;;5030407;28;19925;-32
2023/09/25 10:37:59;;;;;;;;;;;19.60;99.90;;;;;;5009996;28;20567;-31
2023/09/25 10:40:26;;;;;;;;;;;19.60;99.90;;;;;;4998150;28;19926;-34
2023/09/25 10:42:52;;;;;;;;;;;19.70;99.90;;;;;;5009400;28;19932;-31
2023/09/25 10:45:23;;;;;;;;;;;19.80;99.90;;;;;;5008855;28;20189;-32
2023/09/25 10:47:50;;;;;;;;;;;19.90;99.90;;;;;;5009377;28;19933;-31
2023/09/25 10:50:16;;;;;;;;;;;19.90;99.90;;;;;;4992325;28;19980;-31
2023/09/25 10:52:43;;;;;;;;;;;20.00;99.90;;;;;;5009409;28;19925;-30
2023/09/25 10:55:10;;;;;;;;;;;20.10;99.90;;;;;;5009947;28;19933;-31
2023/09/25 10:57:37;;;;;;;;;;;20.10;99.90;;;;;;5009923;28;19931;-32
2023/09/25 11:00:09;;;;;;;;;;;20.10;99.90;;;;;;5010141;28;19925;-31
2023/09/25 11:02:37;;;;;;;;;;;20.20;99.90;;;;;;4992497;28;19933;-33
2023/09/25 11:05:04;;;;;;;;;;;20.30;99.90;;;;;;4992819;28;19980;-31
2023/09/25 11:07:31;;;;;;;;;;;20.40;99.90;;;;;;5009963;28;19925;-32
2023/09/25 11:09:57;;;;;;;;;;;20.50;99.90;;;;;;5028727;28;19925;-32
2023/09/25 11:12:24;;;;;;;;;;;20.60;99.90;;;;;;5017838;28;19975;-32
2023/09/25 11:14:51;;;;;;;;;;;20.60;99.90;;;;;;5030901;28;19979;-33
2023/09/25 11:17:17;;;;;;;;;;;20.70;99.90;;;;;;5035381;28;19929;-32
2023/09/25 11:19:46;;;;;;;;;;;20.70;99.90;;;;;;5034879;28;19979;-31
2023/09/25 11:22:13;;;;;;;;;;;20.80;99.90;;;;;;5034933;28;20389;-32
2023/09/25 11:24:39;;;;;;;;;;;20.80;99.90;;;;;;5034153;28;19932;-32
2023/09/25 11:27:07;;;;;;;;;;;20.90;99.90;;;;;;5034038;28;20355;-31
2023/09/25 11:29:35;;;;;;;;;;;20.90;99.80;;;;;;5017461;28;20011;-31
2023/09/25 11:32:02;;;;;;;;;;;20.90;99.80;;;;;;5006407;28;19929;-33
2023/09/25 11:34:29;;;;;;;;;;;21.00;99.90;;;;;;5029482;28;19925;-33
2023/09/25 11:36:57;;;;;;;;;;;21.10;99.90;;;;;;5031455;28;19925;-32
2023/09/25 11:39:24;;;;;;;;;;;21.20;99.90;;;;;;5033074;28;19956;-32
2023/09/25 11:41:51;;;;;;;;;;;21.20;98.90;;;;;;5017519;28;19932;-32
2023/09/25 11:44:18;;;;;;;;;;;21.20;99.50;;;;;;5033529;28;19925;-33
2023/09/25 11:46:45;;;;;;;;;;;21.20;99.80;;;;;;5034662;28;19925;-32
2023/09/25 11:49:12;;;;;;;;;;;21.30;99.50;;;;;;5034684;28;19933;-33
2023/09/25 11:51:38;;;;;;;;;;;21.30;99.90;;;;;;5017267;28;20270;-32
2023/09/25 11:54:07;;;;;;;;;;;21.40;99.70;;;;;;5017664;28;19994;-32
2023/09/25 11:56:33;;;;;;;;;;;21.40;98.20;;;;;;5017102;28;19925;-33
2023/09/25 11:59:00;;;;;;;;;;;21.50;98.60;;;;;;4999672;28;19925;-32
2023/09/25 12:01:27;;;;;;;;;;;21.50;98.60;;;;;;5031506;28;19925;-33
2023/09/25 12:03:54;;;;;;;;;;;21.60;99.30;;;;;;5032293;28;20335;-32
2023/09/25 12:06:24;;;;;;;;;;;21.70;99.30;;;;;;5015954;28;19983;-31
2023/09/25 12:08:50;;;;;;;;;;;21.80;99.20;;;;;;5033586;28;20016;-32
2023/09/25 12:11:18;;;;;;;;;;;21.90;97.80;;;;;;5015650;28;19929;-32
2023/09/25 12:13:45;;;;;;;;;;;21.90;98.70;;;;;;5015584;28;19971;-32
2023/09/25 12:16:12;;;;;;;;;;;21.90;98.00;;;;;;5015391;28;19929;-32
2023/09/25 12:18:39;;;;;;;;;;;21.90;97.90;;;;;;5033319;28;19932;-32
2023/09/25 12:21:07;;;;;;;;;;;21.90;97.10;;;;;;5033260;28;20007;-31
2023/09/25 12:23:34;;;;;;;;;;;22.00;97.60;;;;;;5033180;28;19931;-31
2023/09/25 12:26:01;;;;;;;;;;;21.90;97.40;;;;;;5015949;28;19929;-31
2023/09/25 12:28:29;;;;;;;;;;;21.90;97.00;;;;;;5031314;28;19925;-30
2023/09/25 12:30:56;;;;;;;;;;;21.90;97.00;;;;;;5033308;28;20013;-32
2023/09/25 12:33:23;;;;;;;;;;;21.90;98.20;;;;;;5014481;28;19929;-32
2023/09/25 12:35:49;;;;;;;;;;;21.90;97.70;;;;;;5014727;28;19925;-31
2023/09/25 12:38:16;;;;;;;;;;;21.90;97.70;;;;;;5015043;28;20027;-34
2023/09/25 12:40:43;;;;;;;;;;;22.10;97.20;;;;;;5029998;28;19929;-32
2023/09/25 12:43:10;;;;;;;;;;;22.10;97.20;;;;;;5013038;28;19925;-33
2023/09/25 12:45:38;;;;;;;;;;;22.20;97.40;;;;;;5031798;28;19926;-31
2023/09/25 12:48:06;;;;;;;;;;;22.20;97.20;;;;;;5013222;28;19925;-34
2023/09/25 12:50:32;;;;;;;;;;;22.20;96.70;;;;;;5013179;28;20133;-32
2023/09/25 12:52:59;;;;;;;;;;;22.10;97.30;;;;;;5005757;28;19929;-32
2023/09/25 12:55:30;;;;;;;;;;;22.10;97.80;;;;;;5013428;28;19979;-35
2023/09/25 12:57:56;;;;;;;;;;;22.10;98.20;;;;;;5032764;28;19931;-33
2023/09/25 13:00:24;;;;;;;;;;;22.10;97.90;;;;;;5032296;28;19972;-34
2023/09/25 13:02:52;;;;;;;;;;;22.00;97.70;;;;;;5032528;28;19926;-33
2023/09/25 13:05:19;;;;;;;;;;;22.00;96.50;;;;;;5013055;28;19971;-33
2023/09/25 13:07:46;;;;;;;;;;;22.00;97.90;;;;;;5015659;28;19932;-34
2023/09/25 13:10:12;;;;;;;;;;;22.00;98.30;;;;;;5031656;28;20356;-33
2023/09/25 13:12:39;;;;;;;;;;;22.00;96.80;;;;;;5032496;28;20337;-32
2023/09/25 13:15:07;;;;;;;;;;;22.00;97.80;;;;;;5013911;28;19933;-33
2023/09/25 13:17:34;;;;;;;;;;;21.90;98.20;;;;;;5014137;28;20008;-32
2023/09/25 13:20:07;;;;;;;;;;;22.00;98.10;;;;;;5032381;28;19929;-31
2023/09/25 13:22:34;;;;;;;;;;;22.10;97.70;;;;;;5012670;28;19925;-32
2023/09/25 13:25:00;;;;;;;;;;;22.10;96.60;;;;;;5032146;28;20305;-33
2023/09/25 13:27:27;;;;;;;;;;;22.10;96.50;;;;;;5031165;28;20332;-33
2023/09/25 13:29:54;;;;;;;;;;;22.10;97.20;;;;;;5014101;28;20467;-32
2023/09/25 13:32:20;;;;;;;;;;;22.20;96.80;;;;;;5032485;28;20356;-31
2023/09/25 13:34:47;;;;;;;;;;;22.30;96.80;;;;;;5028004;28;20328;-33
2023/09/25 13:37:15;;;;;;;;;;;22.30;96.10;;;;;;5012895;28;19925;-32
2023/09/25 13:39:42;;;;;;;;;;;22.30;96.30;;;;;;4995684;28;19976;-32
2023/09/25 13:42:11;;;;;;;;;;;22.30;97.10;;;;;;5014703;28;19929;-31
2023/09/25 13:44:38;;;;;;;;;;;22.30;97.30;;;;;;5015156;28;20514;-31
2023/09/25 13:47:04;;;;;;;;;;;22.20;97.60;;;;;;5030926;28;19929;-32
2023/09/25 13:49:31;;;;;;;;;;;22.20;97.20;;;;;;5031289;28;19925;-32
2023/09/25 13:51:57;;;;;;;;;;;22.20;97.10;;;;;;5032407;28;20436;-32
2023/09/25 13:54:26;;;;;;;;;;;22.10;96.40;;;;;;5014574;28;20380;-33
2023/09/25 13:56:53;;;;;;;;;;;22.10;96.10;;;;;;5014573;28;20306;-33
2023/09/25 13:59:19;;;;;;;;;;;22.10;97.10;;;;;;5031016;28;19925;-32
2023/09/25 14:01:46;;;;;;;;;;;22.20;97.90;;;;;;5031935;28;19979;-32
2023/09/25 14:04:13;;;;;;;;;;;22.30;97.90;;;;;;5014525;28;19929;-31
2023/09/25 14:06:40;;;;;;;;;;;22.40;96.60;;;;;;5013491;28;19926;-32
2023/09/25 14:09:08;;;;;;;;;;;22.60;96.80;;;;;;5031166;28;19987;-32
2023/09/25 14:11:36;;;;;;;;;;;22.70;97.00;;;;;;5014894;28;19932;-35
2023/09/25 14:14:04;;;;;;;;;;;22.70;95.10;;;;;;5008161;28;20470;-33
2023/09/25 14:16:30;;;;;;;;;;;22.70;95.60;;;;;;5024296;28;19972;-33